createdAt,value
2023-05-09T07:12:14.352Z,9.06
2023-05-09T07:14:41.965Z,9.23
2023-05-09T07:17:21.823Z,9.53
2023-05-09T07:19:49.444Z,9.91
2023-05-09T07:22:16.384Z,10.20
2023-05-09T07:24:44.610Z,10.38
2023-05-09T07:27:11.999Z,10.56
2023-05-09T07:29:38.704Z,10.59
2023-05-09T07:32:05.494Z,10.48
2023-05-09T07:34:32.159Z,10.51
2023-05-09T07:36:58.872Z,10.51
2023-05-09T07:39:25.749Z,10.70
2023-05-09T07:41:53.125Z,10.99
2023-05-09T07:44:19.736Z,11.30
2023-05-09T07:46:46.300Z,11.52
2023-05-09T07:49:13.008Z,11.75
2023-05-09T07:51:39.573Z,11.99
2023-05-09T07:54:06.357Z,12.33
2023-05-09T07:56:33.054Z,12.78
2023-05-09T07:58:59.623Z,13.16
2023-05-09T08:01:26.349Z,13.49
2023-05-09T08:03:53.881Z,13.72
2023-05-09T08:06:20.610Z,13.52
2023-05-09T08:08:47.227Z,13.29
2023-05-09T08:11:15.229Z,13.07
2023-05-09T08:13:41.834Z,12.71
2023-05-09T08:16:08.473Z,12.37
2023-05-09T08:18:36.076Z,12.10
2023-05-09T08:21:02.684Z,11.92
2023-05-09T08:23:30.458Z,11.80
2023-05-09T08:25:58.697Z,12.00
2023-05-09T08:28:25.273Z,12.37
2023-05-09T08:30:52.244Z,12.63
2023-05-09T08:33:19.187Z,12.76
2023-05-09T08:35:50.217Z,12.82
2023-05-09T08:38:16.774Z,12.86
2023-05-09T08:40:44.169Z,13.08
2023-05-09T08:43:12.174Z,13.39
2023-05-09T08:45:47.135Z,13.70
2023-05-09T08:48:17.614Z,13.69
2023-05-09T08:50:44.872Z,13.74
2023-05-09T08:53:12.412Z,13.84
2023-05-09T08:55:39.702Z,13.93
2023-05-09T08:58:07.497Z,14.05
2023-05-09T09:00:34.673Z,14.31
2023-05-09T09:03:04.123Z,14.65
2023-05-09T09:05:41.280Z,15.34
2023-05-09T09:08:12.166Z,16.00
2023-05-09T09:10:43.504Z,17.69
2023-05-09T09:13:12.548Z,18.52
2023-05-09T09:15:41.420Z,19.58
2023-05-09T09:18:10.301Z,18.34
2023-05-09T09:20:52.849Z,16.97
2023-05-09T09:23:24.449Z,16.03
2023-05-09T09:26:01.894Z,15.18
2023-05-09T09:28:29.085Z,14.77
2023-05-09T09:30:56.283Z,14.65
2023-05-09T09:33:24.721Z,14.77
2023-05-09T09:35:52.912Z,15.36
2023-05-09T09:38:20.712Z,18.72
2023-05-09T09:40:55.294Z,21.70
2023-05-09T09:43:32.255Z,24.04
2023-05-09T09:46:03.306Z,25.30
2023-05-09T09:48:36.407Z,24.66
2023-05-09T09:51:12.035Z,26.39
2023-05-09T09:53:42.299Z,26.52
2023-05-09T09:56:09.253Z,23.88
2023-05-09T09:58:36.267Z,24.58
2023-05-09T10:01:20.131Z,26.89
2023-05-09T10:03:46.873Z,25.99
2023-05-09T10:06:16.824Z,24.16
2023-05-09T10:08:49.237Z,24.25
2023-05-09T10:11:16.326Z,26.88
2023-05-09T10:13:45.382Z,27.89
2023-05-09T10:16:14.358Z,28.80
2023-05-09T10:18:43.014Z,29.51
2023-05-09T10:21:14.565Z,30.66
2023-05-09T10:23:49.312Z,31.04
2023-05-09T10:26:27.565Z,27.10
2023-05-09T10:29:00.783Z,25.98
2023-05-09T10:31:29.272Z,27.84
2023-05-09T10:33:56.626Z,29.71
2023-05-09T10:36:27.326Z,30.32
2023-05-09T10:38:55.411Z,29.27
2023-05-09T10:41:22.688Z,27.63
2023-05-09T10:43:49.619Z,26.18
2023-05-09T10:46:16.903Z,24.19
2023-05-09T10:48:44.831Z,22.63
2023-05-09T10:51:15.597Z,21.06
2023-05-09T10:53:48.165Z,20.03
2023-05-09T10:56:30.286Z,19.11
2023-05-09T10:58:57.483Z,18.99
2023-05-09T11:01:35.690Z,23.23
2023-05-09T11:04:10.000Z,27.43
2023-05-09T11:06:43.304Z,30.53
2023-05-09T11:09:37.947Z,33.00
2023-05-09T11:12:08.917Z,34.48
2023-05-09T11:14:44.372Z,33.92
2023-05-09T11:17:32.581Z,29.57
2023-05-09T11:20:03.434Z,25.94
2023-05-09T11:22:37.671Z,23.52
2023-05-09T11:25:07.783Z,26.12
2023-05-09T11:27:43.316Z,30.68
2023-05-09T11:30:12.625Z,33.88
2023-05-09T11:32:59.154Z,34.36
2023-05-09T11:35:28.891Z,31.77
2023-05-09T11:38:01.430Z,29.87
2023-05-09T11:40:30.054Z,30.72
2023-05-09T11:42:58.942Z,29.12
2023-05-09T11:45:29.269Z,29.65
2023-05-09T11:47:57.248Z,32.50
2023-05-09T11:50:24.640Z,32.85
2023-05-09T11:52:51.698Z,31.24
2023-05-09T11:55:22.205Z,31.96
2023-05-09T11:57:54.436Z,32.25
2023-05-09T12:00:24.085Z,32.32
2023-05-09T12:02:51.718Z,31.27
2023-05-09T12:05:20.753Z,28.18
2023-05-09T12:07:48.044Z,27.15
2023-05-09T12:10:16.493Z,29.45
2023-05-09T12:12:47.483Z,30.90
2023-05-09T12:15:15.247Z,32.42
2023-05-09T12:17:43.152Z,31.92
2023-05-09T12:20:12.318Z,29.55
2023-05-09T12:22:43.130Z,27.29
2023-05-09T12:25:11.499Z,29.03
2023-05-09T12:27:40.419Z,31.91
2023-05-09T12:30:14.072Z,31.22
2023-05-09T12:32:43.479Z,29.02
2023-05-09T12:35:10.906Z,26.75
2023-05-09T12:37:37.907Z,25.52
2023-05-09T12:40:19.380Z,24.85
2023-05-09T12:42:46.483Z,26.38
2023-05-09T12:45:15.221Z,27.75
2023-05-09T12:47:43.034Z,27.49
2023-05-09T12:50:12.308Z,25.92
2023-05-09T12:52:50.759Z,24.42
2023-05-09T12:55:31.047Z,23.18
2023-05-09T12:57:59.891Z,22.49
2023-05-09T13:00:26.620Z,22.19
2023-05-09T13:02:54.907Z,21.55
2023-05-09T13:05:23.232Z,21.49
2023-05-09T13:07:52.694Z,21.41
2023-05-09T13:10:24.533Z,21.04
2023-05-09T13:12:53.437Z,20.55
2023-05-09T13:15:22.583Z,19.90
2023-05-09T13:17:53.919Z,19.22
2023-05-09T13:20:20.557Z,18.94
2023-05-09T13:22:47.528Z,18.70
2023-05-09T13:25:14.465Z,18.27
2023-05-09T13:27:41.090Z,18.10
2023-05-09T13:30:08.542Z,17.93
2023-05-09T13:32:36.907Z,17.82
2023-05-09T13:35:06.762Z,17.89
2023-05-09T13:37:34.363Z,18.07
2023-05-09T13:40:01.084Z,19.07
2023-05-09T13:42:28.337Z,20.70
2023-05-09T13:44:55.040Z,22.21
2023-05-09T13:47:21.688Z,23.32
2023-05-09T13:49:48.382Z,24.39
2023-05-09T13:52:16.244Z,23.83
2023-05-09T13:54:45.390Z,22.21
2023-05-09T13:57:11.941Z,20.79
2023-05-09T13:59:41.173Z,20.15
2023-05-09T14:02:08.517Z,20.56
2023-05-09T14:04:35.213Z,21.24
2023-05-09T14:07:01.881Z,21.63
2023-05-09T14:09:29.599Z,23.24
2023-05-09T14:11:57.863Z,24.38
2023-05-09T14:14:25.754Z,26.08
2023-05-09T14:16:54.056Z,25.49
2023-05-09T14:19:20.653Z,25.40
2023-05-09T14:21:47.409Z,24.40
2023-05-09T14:24:16.375Z,23.09
2023-05-09T14:26:43.840Z,21.94
2023-05-09T14:29:11.090Z,20.58
2023-05-09T14:31:38.097Z,19.65
2023-05-09T14:34:05.419Z,18.89
2023-05-09T14:36:34.889Z,18.48
2023-05-09T14:39:02.790Z,17.94
2023-05-09T14:41:29.326Z,17.50
2023-05-09T14:43:55.958Z,17.42
2023-05-09T14:46:24.910Z,17.24
2023-05-09T14:48:52.681Z,17.06
2023-05-09T14:51:19.468Z,16.76
2023-05-09T14:53:47.248Z,16.54
2023-05-09T14:56:14.010Z,16.45
2023-05-09T14:58:40.669Z,16.36
2023-05-09T15:01:07.468Z,16.31
